createdAt,value
2024-02-12T00:02:20.549Z,6.20
2024-02-12T00:04:49.317Z,5.22
2024-02-12T00:07:18.018Z,5.97
2024-02-12T00:09:45.742Z,5.40
2024-02-12T00:12:12.740Z,6.43
2024-02-12T00:14:40.219Z,6.25
2024-02-12T00:17:10.864Z,6.25
2024-02-12T00:19:39.238Z,5.55
2024-02-12T00:22:06.299Z,6.82
2024-02-12T00:24:34.935Z,5.13
2024-02-12T00:27:08.299Z,5.93
2024-02-12T00:29:35.825Z,5.75
2024-02-12T00:32:04.990Z,6.80
2024-02-12T00:34:34.794Z,6.03
2024-02-12T00:37:02.000Z,6.70
2024-02-12T00:39:30.535Z,6.50
2024-02-12T00:41:58.289Z,6.50
2024-02-12T00:44:25.095Z,5.63
2024-02-12T00:46:55.825Z,6.07
2024-02-12T00:49:24.606Z,5.47
2024-02-12T00:51:52.343Z,5.88
2024-02-12T00:54:19.543Z,5.90
2024-02-12T00:56:46.382Z,5.75
2024-02-12T00:59:13.475Z,6.50
2024-02-12T01:01:40.428Z,5.53
2024-02-12T01:04:10.677Z,6.05
2024-02-12T01:06:40.895Z,6.55
2024-02-12T01:09:12.385Z,5.90
2024-02-12T01:11:40.636Z,5.93
2024-02-12T01:14:08.187Z,6.35
2024-02-12T01:16:35.512Z,6.43
2024-02-12T01:19:03.562Z,6.50
2024-02-12T01:21:34.297Z,6.03
2024-02-12T01:26:35.901Z,6.03
2024-02-12T01:29:07.099Z,6.28
2024-02-12T01:31:37.529Z,6.88
2024-02-12T01:36:36.859Z,6.85
2024-02-12T01:39:07.838Z,6.72
2024-02-12T01:41:34.734Z,6.78
2024-02-12T01:44:02.744Z,6.30
2024-02-12T01:46:29.762Z,7.13
2024-02-12T01:48:57.001Z,6.85
2024-02-12T01:51:24.267Z,7.22
2024-02-12T01:53:51.849Z,6.68
2024-02-12T01:56:21.638Z,7.47
2024-02-12T01:58:48.832Z,7.40
2024-02-12T02:01:17.395Z,7.25
2024-02-12T02:03:45.996Z,7.65
2024-02-12T02:06:14.588Z,7.90
2024-02-12T02:08:42.972Z,6.95
2024-02-12T02:11:13.172Z,7.00
2024-02-12T02:13:44.346Z,8.25
2024-02-12T02:16:17.201Z,7.60
2024-02-12T02:18:52.391Z,7.90
2024-02-12T02:21:22.498Z,7.30
2024-02-12T02:23:50.386Z,8.30
2024-02-12T02:26:17.342Z,8.07
2024-02-12T02:28:44.360Z,7.10
2024-02-12T02:31:11.658Z,7.82
2024-02-12T02:33:38.594Z,8.25
2024-02-12T02:36:05.857Z,7.05
2024-02-12T02:38:32.992Z,7.82
2024-02-12T02:41:00.027Z,7.75
2024-02-12T02:43:27.379Z,7.53
2024-02-12T02:45:55.957Z,7.82
2024-02-12T02:48:23.230Z,7.13
2024-02-12T02:50:50.220Z,7.10
2024-02-12T02:53:17.125Z,7.50
2024-02-12T02:55:44.494Z,7.97
2024-02-12T02:58:11.335Z,8.07
2024-02-12T03:00:38.293Z,7.53
2024-02-12T03:03:05.425Z,7.53
2024-02-12T03:05:32.348Z,7.45
2024-02-12T03:08:03.621Z,8.27
2024-02-12T03:10:31.589Z,7.40
2024-02-12T03:12:59.516Z,7.20
2024-02-12T03:15:27.611Z,8.60
2024-02-12T03:17:55.325Z,7.25
2024-02-12T03:20:22.711Z,7.97
2024-02-12T03:22:49.587Z,8.40
2024-02-12T03:25:17.127Z,7.72
2024-02-12T03:27:45.050Z,8.20
2024-02-12T03:30:12.496Z,7.22
2024-02-12T03:32:42.326Z,7.22
2024-02-12T03:35:09.660Z,6.55
2024-02-12T03:37:36.984Z,6.78
2024-02-12T03:40:04.694Z,7.05
2024-02-12T03:42:31.501Z,7.88
2024-02-12T03:44:58.386Z,7.15
2024-02-12T03:47:39.441Z,7.68
2024-02-12T03:50:27.076Z,7.80
2024-02-12T03:53:12.911Z,7.22
2024-02-12T03:56:00.751Z,7.72
2024-02-12T03:58:46.583Z,6.97
2024-02-12T04:01:14.428Z,7.38
2024-02-12T04:03:41.336Z,7.78
2024-02-12T04:06:13.605Z,8.05
2024-02-12T04:08:42.921Z,8.23
2024-02-12T04:11:11.004Z,7.72
2024-02-12T04:13:39.156Z,6.85
2024-02-12T04:16:10.317Z,7.03
2024-02-12T04:18:37.191Z,6.68
2024-02-12T04:21:10.312Z,6.95
2024-02-12T04:23:39.019Z,7.63
2024-02-12T04:26:09.777Z,6.90
2024-02-12T04:28:40.948Z,7.38
2024-02-12T04:31:08.077Z,7.93
2024-02-12T04:33:34.945Z,7.53
2024-02-12T04:36:02.976Z,7.50
2024-02-12T04:38:34.643Z,7.03
2024-02-12T04:41:01.956Z,5.95
2024-02-12T04:43:28.853Z,7.38
2024-02-12T04:45:55.617Z,7.03
2024-02-12T04:48:22.610Z,7.53
2024-02-12T04:50:49.565Z,6.90
2024-02-12T04:53:17.093Z,6.93
2024-02-12T04:55:44.183Z,7.47
2024-02-12T04:58:11.056Z,6.90
2024-02-12T05:00:37.884Z,7.53
2024-02-12T05:03:05.075Z,7.45
2024-02-12T05:05:33.242Z,7.32
2024-02-12T05:08:04.824Z,7.85
2024-02-12T05:10:33.155Z,7.90
2024-02-12T05:13:00.986Z,7.95
2024-02-12T05:15:27.943Z,7.70
2024-02-12T05:18:08.168Z,7.72
2024-02-12T05:23:23.199Z,7.28
2024-02-12T05:25:50.029Z,7.55
2024-02-12T05:28:16.788Z,7.93
2024-02-12T05:30:43.607Z,7.88
2024-02-12T05:33:12.833Z,7.97
2024-02-12T05:35:41.654Z,8.05
2024-02-12T05:38:09.650Z,8.68
2024-02-12T05:40:38.268Z,8.23
2024-02-12T05:43:05.007Z,6.93
2024-02-12T05:45:32.141Z,7.45
2024-02-12T05:47:59.072Z,8.57
2024-02-12T05:50:26.106Z,7.45
2024-02-12T05:52:53.165Z,7.82
2024-02-12T05:55:20.063Z,7.97
2024-02-12T05:57:46.878Z,7.30
2024-02-12T06:00:14.053Z,7.97
2024-02-12T06:02:42.685Z,7.97
2024-02-12T06:05:10.143Z,8.10
2024-02-12T06:07:37.182Z,8.32
2024-02-12T06:10:04.621Z,8.00
2024-02-12T06:12:31.487Z,7.88
2024-02-12T06:14:58.300Z,8.63
2024-02-12T06:17:25.094Z,8.40
2024-02-12T06:19:52.423Z,8.23
2024-02-12T06:22:20.446Z,7.97
2024-02-12T06:24:47.188Z,7.97
2024-02-12T06:27:16.108Z,7.43
2024-02-12T06:29:43.226Z,7.68
2024-02-12T06:32:15.401Z,8.48
2024-02-12T06:34:48.866Z,7.53
2024-02-12T06:37:19.324Z,8.88
2024-02-12T06:39:46.118Z,8.40
2024-02-12T06:42:13.003Z,7.93
2024-02-12T06:44:40.813Z,9.63
2024-02-12T06:47:09.475Z,9.82
2024-02-12T06:49:36.575Z,8.75
2024-02-12T06:52:03.413Z,8.48
2024-02-12T06:54:30.312Z,9.15
2024-02-12T06:56:57.067Z,8.95
2024-02-12T06:59:24.620Z,8.75
2024-02-12T07:01:51.481Z,9.20
2024-02-12T07:04:18.218Z,8.68
2024-02-12T07:06:47.546Z,9.48
2024-02-12T07:09:14.393Z,9.75
2024-02-12T07:11:41.239Z,9.65
2024-02-12T07:14:08.026Z,8.95
2024-02-12T07:16:34.917Z,8.90
2024-02-12T07:19:01.809Z,9.88
2024-02-12T07:21:28.608Z,8.70
2024-02-12T07:23:55.461Z,9.93
2024-02-12T07:26:22.799Z,8.98
2024-02-12T07:28:52.851Z,8.85
2024-02-12T07:31:19.990Z,8.68
2024-02-12T07:33:46.997Z,8.00
2024-02-12T07:36:14.266Z,8.60
2024-02-12T07:38:41.676Z,8.98
2024-02-12T07:41:10.041Z,8.90
2024-02-12T07:43:37.190Z,9.20
2024-02-12T07:46:05.586Z,8.68
2024-02-12T07:48:32.492Z,8.63
2024-02-12T07:51:00.426Z,8.25
2024-02-12T07:53:30.404Z,8.25
2024-02-12T07:55:57.799Z,8.13
2024-02-12T07:58:25.844Z,7.50
2024-02-12T08:00:53.147Z,7.72
2024-02-12T08:03:21.341Z,8.35
2024-02-12T08:05:49.119Z,9.15
2024-02-12T08:08:17.631Z,7.60
2024-02-12T08:10:47.303Z,7.65
2024-02-12T08:13:14.511Z,7.65
2024-02-12T08:15:41.376Z,8.20
2024-02-12T08:18:08.467Z,7.97
2024-02-12T08:20:36.037Z,7.53
2024-02-12T08:23:06.104Z,7.13
2024-02-12T08:25:32.905Z,7.50
2024-02-12T08:27:59.822Z,6.65
2024-02-12T08:30:26.768Z,7.93
2024-02-12T08:32:53.871Z,7.20
2024-02-12T08:35:22.516Z,8.15
2024-02-12T08:37:49.786Z,7.88
2024-02-12T08:40:17.986Z,7.30
2024-02-12T08:42:48.541Z,6.25
2024-02-12T08:47:42.980Z,7.10
2024-02-12T08:50:11.951Z,6.95
2024-02-12T08:52:39.136Z,6.30
2024-02-12T08:55:16.791Z,6.00
2024-02-12T08:57:44.077Z,5.10
2024-02-12T09:00:12.142Z,6.22
2024-02-12T09:02:39.153Z,6.05
2024-02-12T09:05:11.988Z,6.22
2024-02-12T09:07:42.566Z,6.43
2024-02-12T09:10:11.053Z,6.18
2024-02-12T09:12:47.962Z,6.70
2024-02-12T09:15:20.874Z,6.65
2024-02-12T09:17:48.577Z,6.32
2024-02-12T09:20:17.054Z,6.38
2024-02-12T09:22:44.502Z,5.57
2024-02-12T09:25:12.976Z,5.30
2024-02-12T09:27:40.795Z,4.75
2024-02-12T09:30:10.974Z,4.97
2024-02-12T09:32:39.680Z,5.50
2024-02-12T09:35:08.929Z,5.35
2024-02-12T09:37:35.952Z,4.85
2024-02-12T09:40:05.095Z,5.57
2024-02-12T09:42:35.559Z,4.90
2024-02-12T09:47:35.197Z,5.03
2024-02-12T09:50:06.051Z,5.50
2024-02-12T09:52:33.345Z,4.80
2024-02-12T09:55:00.739Z,6.10
2024-02-12T09:57:33.896Z,6.07
2024-02-12T10:00:01.522Z,5.25
2024-02-12T10:02:37.049Z,5.85
2024-02-12T10:05:08.221Z,5.75
2024-02-12T10:07:41.286Z,6.53
2024-02-12T10:10:09.508Z,5.55
2024-02-12T10:12:40.781Z,5.97
2024-02-12T10:15:08.311Z,5.30
2024-02-12T10:17:35.214Z,5.78
2024-02-12T10:20:02.332Z,6.20
2024-02-12T10:22:29.899Z,6.40
2024-02-12T10:24:56.963Z,7.10
2024-02-12T10:27:24.085Z,6.07
2024-02-12T10:30:06.595Z,6.45
2024-02-12T10:32:39.114Z,7.65
2024-02-12T10:35:12.692Z,7.63
2024-02-12T10:37:39.672Z,7.65
2024-02-12T10:40:14.245Z,6.82
2024-02-12T10:42:51.254Z,6.95
2024-02-12T10:45:19.267Z,6.57
2024-02-12T10:47:46.735Z,6.88
2024-02-12T10:50:14.916Z,6.78
2024-02-12T10:52:43.072Z,7.25
2024-02-12T10:55:11.457Z,6.57
2024-02-12T10:57:46.176Z,5.65
2024-02-12T11:00:24.715Z,4.93
2024-02-12T11:02:51.945Z,5.32
2024-02-12T11:05:19.644Z,4.22
2024-02-12T11:07:46.787Z,3.50
2024-02-12T11:10:19.601Z,3.00
2024-02-12T11:12:50.484Z,2.92
2024-02-12T11:15:25.113Z,3.53
2024-02-12T11:17:52.187Z,3.03
2024-02-12T11:20:24.481Z,3.03
2024-02-12T11:22:53.688Z,3.15
2024-02-12T11:25:23.380Z,3.17
2024-02-12T11:27:55.649Z,2.72
2024-02-12T11:30:22.651Z,2.80
2024-02-12T11:32:50.105Z,2.67
2024-02-12T11:35:19.672Z,2.50
2024-02-12T11:38:00.509Z,2.63
2024-02-12T11:40:27.631Z,2.65
2024-02-12T11:42:54.716Z,2.13
2024-02-12T11:45:24.177Z,2.80
2024-02-12T11:47:53.669Z,2.67
2024-02-12T11:50:28.232Z,2.75
2024-02-12T11:52:56.422Z,2.58
2024-02-12T11:55:25.054Z,2.08
2024-02-12T11:57:51.954Z,2.30
2024-02-12T12:00:20.297Z,2.42
2024-02-12T12:02:56.372Z,2.03
2024-02-12T12:05:24.879Z,2.05
2024-02-12T12:07:53.079Z,2.03
2024-02-12T12:10:28.042Z,1.70
2024-02-12T12:13:00.987Z,1.13
2024-02-12T12:15:31.755Z,1.30
2024-02-12T12:18:01.972Z,1.38
2024-02-12T12:20:31.640Z,1.10
2024-02-12T12:23:04.873Z,2.85
2024-02-12T12:25:31.928Z,2.45
2024-02-12T12:27:58.810Z,1.40
2024-02-12T12:30:27.197Z,2.00
2024-02-12T12:32:54.165Z,1.48
2024-02-12T12:35:21.309Z,0.88
2024-02-12T12:37:48.341Z,7.25
2024-02-12T12:40:21.399Z,6.28
2024-02-12T12:42:49.766Z,1.60
2024-02-12T12:45:20.733Z,1.15
2024-02-12T12:47:49.836Z,1.20
2024-02-12T12:50:17.141Z,0.98
2024-02-12T12:52:44.825Z,1.35
2024-02-12T12:55:16.377Z,1.35
2024-02-12T12:57:44.297Z,1.00
2024-02-12T13:00:22.668Z,0.80
2024-02-12T13:02:57.010Z,1.15
2024-02-12T13:05:24.445Z,0.70
2024-02-12T13:08:16.882Z,0.85
2024-02-12T13:10:47.870Z,1.00
2024-02-12T13:13:16.041Z,1.00
2024-02-12T13:15:47.815Z,0.82
2024-02-12T13:18:18.559Z,0.85
2024-02-12T13:20:48.014Z,0.80
2024-02-12T13:23:15.641Z,1.10
2024-02-12T13:25:42.475Z,1.20
2024-02-12T13:28:12.545Z,1.13
2024-02-12T13:33:10.216Z,0.95
2024-02-12T13:35:39.900Z,0.80
2024-02-12T13:38:12.296Z,1.20
2024-02-12T13:40:41.195Z,1.00
2024-02-12T13:43:11.907Z,1.27
2024-02-12T13:45:40.970Z,0.82
2024-02-12T13:48:11.357Z,1.30
2024-02-12T13:53:06.902Z,0.85
2024-02-12T13:55:34.958Z,1.13
2024-02-12T13:58:02.128Z,0.90
2024-02-12T14:00:47.204Z,1.17
2024-02-12T14:03:15.917Z,1.38
2024-02-12T14:05:44.523Z,0.70
2024-02-12T14:08:12.655Z,1.13
2024-02-12T14:10:39.746Z,0.68
2024-02-12T14:13:06.752Z,1.50
2024-02-12T14:16:03.699Z,0.90
2024-02-12T14:18:23.537Z,0.75
2024-02-12T14:20:55.026Z,0.90
2024-02-12T14:23:23.353Z,0.85
2024-02-12T14:25:50.580Z,1.02
2024-02-12T14:28:17.492Z,0.90
2024-02-12T14:30:47.200Z,0.52
2024-02-12T14:33:15.993Z,0.85
2024-02-12T14:35:47.813Z,0.77
2024-02-12T14:38:15.355Z,0.73
2024-02-12T14:40:44.538Z,1.05
2024-02-12T14:43:15.486Z,0.85
2024-02-12T14:45:43.310Z,0.70
2024-02-12T14:48:10.642Z,0.70
2024-02-12T14:50:38.251Z,0.50
2024-02-12T14:53:08.356Z,0.70
2024-02-12T14:55:36.758Z,0.60
2024-02-12T14:58:05.174Z,0.70
2024-02-12T15:00:32.416Z,0.88
2024-02-12T15:02:59.998Z,0.60
2024-02-12T15:05:29.322Z,0.57
2024-02-12T15:07:59.580Z,1.05
2024-02-12T15:10:26.685Z,0.50
2024-02-12T15:13:04.710Z,0.80
2024-02-12T15:15:33.817Z,0.80
2024-02-12T15:18:02.376Z,0.38
2024-02-12T15:20:32.517Z,0.60
2024-02-12T15:23:02.978Z,0.60
2024-02-12T15:25:33.037Z,0.70
2024-02-12T15:28:05.690Z,0.98
2024-02-12T15:30:32.792Z,1.05
2024-02-12T15:33:04.207Z,0.88
2024-02-12T15:35:32.245Z,1.20
2024-02-12T15:38:02.315Z,0.55
2024-02-12T15:40:34.448Z,1.02
2024-02-12T15:43:03.041Z,0.95
2024-02-12T15:45:31.604Z,0.70
2024-02-12T15:47:59.692Z,1.38
2024-02-12T15:50:29.779Z,1.10
2024-02-12T15:52:57.303Z,0.93
2024-02-12T15:55:25.877Z,0.70
2024-02-12T15:57:55.061Z,0.57
2024-02-12T16:00:24.246Z,0.95
2024-02-12T16:02:54.930Z,0.75
2024-02-12T16:06:06.544Z,0.93
2024-02-12T16:08:38.650Z,0.75
2024-02-12T16:11:07.673Z,0.77
2024-02-12T16:13:35.091Z,1.00
2024-02-12T16:16:03.426Z,1.02
2024-02-12T16:18:30.239Z,0.98
2024-02-12T16:21:01.070Z,1.20
2024-02-12T16:23:28.180Z,1.02
2024-02-12T16:25:55.276Z,1.55
2024-02-12T16:28:23.111Z,1.20
2024-02-12T16:30:50.346Z,1.02
2024-02-12T16:33:19.131Z,1.27
2024-02-12T16:35:46.746Z,1.08
2024-02-12T16:38:13.907Z,1.15
2024-02-12T16:40:40.863Z,1.08
2024-02-12T16:43:09.485Z,1.20
2024-02-12T16:45:38.801Z,0.90
2024-02-12T16:48:07.026Z,1.33
2024-02-12T16:50:36.891Z,1.23
2024-02-12T16:53:03.998Z,0.80
2024-02-12T16:55:32.571Z,1.50
2024-02-12T16:57:59.342Z,1.40
2024-02-12T17:00:26.242Z,6.40
2024-02-12T17:02:56.300Z,2.40
2024-02-12T17:05:24.243Z,2.55
2024-02-12T17:08:01.596Z,2.20
2024-02-12T17:10:35.553Z,1.85
2024-02-12T17:13:03.164Z,1.60
2024-02-12T17:15:30.006Z,1.20
2024-02-12T17:17:57.736Z,1.00
2024-02-12T17:20:25.661Z,1.83
2024-02-12T17:22:52.519Z,1.90
2024-02-12T17:25:19.592Z,1.90
2024-02-12T17:27:46.741Z,1.67
2024-02-12T17:30:14.816Z,2.95
2024-02-12T17:32:41.897Z,3.88
2024-02-12T17:35:13.006Z,3.03
2024-02-12T17:37:40.919Z,2.15
2024-02-12T17:40:10.598Z,2.15
2024-02-12T17:42:39.501Z,2.00
2024-02-12T17:45:11.020Z,1.77
2024-02-12T17:47:41.462Z,1.77
2024-02-12T17:50:10.974Z,1.33
2024-02-12T17:52:38.272Z,1.30
2024-02-12T17:55:07.695Z,1.35
2024-02-12T17:57:35.906Z,1.30
2024-02-12T18:00:02.745Z,1.48
2024-02-12T18:02:29.693Z,1.60
2024-02-12T18:04:59.095Z,1.90
2024-02-12T18:07:26.092Z,1.25
2024-02-12T18:09:52.954Z,1.60
2024-02-12T18:12:22.518Z,1.50
2024-02-12T18:14:50.317Z,1.85
2024-02-12T18:17:24.563Z,2.10
2024-02-12T18:19:53.085Z,1.48
2024-02-12T18:22:24.388Z,1.50
2024-02-12T18:24:51.138Z,2.10
2024-02-12T18:27:17.982Z,1.33
2024-02-12T18:29:46.623Z,6.40
2024-02-12T18:32:13.828Z,4.50
2024-02-12T18:34:41.836Z,2.33
2024-02-12T18:37:10.552Z,17.77
2024-02-12T18:39:40.782Z,7.53
2024-02-12T18:42:07.878Z,4.38
2024-02-12T18:44:41.591Z,3.60
2024-02-12T18:47:08.491Z,2.03
2024-02-12T18:49:35.447Z,2.05
2024-02-12T18:52:03.467Z,1.60
2024-02-12T18:54:32.438Z,1.58
2024-02-12T18:56:59.334Z,1.45
2024-02-12T18:59:26.222Z,1.20
2024-02-12T19:01:57.190Z,1.40
2024-02-12T19:04:24.623Z,1.98
2024-02-12T19:06:51.651Z,1.77
2024-02-12T19:09:18.798Z,1.40
2024-02-12T19:11:46.177Z,1.70
2024-02-12T19:14:13.572Z,1.73
2024-02-12T19:16:40.435Z,1.27
2024-02-12T19:19:07.517Z,1.50
2024-02-12T19:21:34.561Z,1.20
2024-02-12T19:24:07.343Z,1.20
2024-02-12T19:26:35.919Z,1.30
2024-02-12T19:29:03.157Z,1.30
2024-02-12T19:31:32.152Z,1.83
2024-02-12T19:33:58.938Z,1.52
2024-02-12T19:36:25.764Z,1.63
2024-02-12T19:38:52.630Z,1.40
2024-02-12T19:41:19.596Z,1.90
2024-02-12T19:43:48.587Z,1.85
2024-02-12T19:46:15.472Z,1.90
2024-02-12T19:48:42.419Z,1.55
2024-02-12T19:51:09.281Z,1.92
2024-02-12T19:53:36.052Z,2.10
2024-02-12T19:56:04.708Z,1.45
2024-02-12T19:58:35.014Z,2.47
2024-02-12T20:01:05.023Z,2.45
2024-02-12T20:03:31.857Z,1.67
2024-02-12T20:05:58.804Z,1.40
2024-02-12T20:08:25.776Z,1.92
2024-02-12T20:10:52.921Z,1.73
2024-02-12T20:13:19.695Z,1.98
2024-02-12T20:15:46.534Z,1.98
2024-02-12T20:18:13.728Z,1.63
2024-02-12T20:20:41.138Z,1.70
2024-02-12T20:23:08.082Z,1.50
2024-02-12T20:25:36.248Z,1.60
2024-02-12T20:28:05.959Z,1.50
2024-02-12T20:30:40.105Z,1.45
2024-02-12T20:33:06.981Z,1.33
2024-02-12T20:35:33.942Z,1.52
2024-02-12T20:38:03.021Z,1.35
2024-02-12T20:40:30.308Z,1.55
2024-02-12T20:42:57.046Z,1.23
2024-02-12T20:45:23.928Z,1.58
2024-02-12T20:47:50.928Z,1.25
2024-02-12T20:50:19.019Z,1.55
2024-02-12T20:52:45.899Z,1.45
2024-02-12T20:55:15.051Z,1.40
2024-02-12T20:57:43.407Z,1.60
2024-02-12T21:00:10.822Z,1.65
2024-02-12T21:02:37.883Z,1.40
2024-02-12T21:05:10.985Z,1.27
2024-02-12T21:07:40.334Z,1.40
2024-02-12T21:10:07.829Z,1.58
2024-02-12T21:12:34.688Z,1.48
2024-02-12T21:15:01.640Z,1.55
2024-02-12T21:17:29.627Z,1.40
2024-02-12T21:19:58.411Z,1.60
2024-02-12T21:22:25.358Z,1.90
2024-02-12T21:24:52.138Z,1.42
2024-02-12T21:27:19.134Z,1.98
2024-02-12T21:29:47.590Z,1.50
2024-02-12T21:32:15.931Z,1.70
2024-02-12T21:34:43.548Z,1.77
2024-02-12T21:37:18.402Z,1.58
2024-02-12T21:39:49.511Z,1.40
2024-02-12T21:42:27.959Z,1.55
2024-02-12T21:44:57.239Z,1.70
2024-02-12T21:47:24.741Z,2.00
2024-02-12T21:49:55.175Z,2.20
2024-02-12T21:52:22.548Z,2.30
2024-02-12T21:54:53.250Z,2.10
2024-02-12T21:57:21.394Z,2.42
2024-02-12T21:59:53.408Z,2.35
2024-02-12T22:02:21.552Z,2.20
2024-02-12T22:04:55.270Z,2.35
2024-02-12T22:07:22.626Z,2.60
2024-02-12T22:09:49.879Z,2.20
2024-02-12T22:12:17.251Z,2.47
2024-02-12T22:14:45.096Z,2.42
2024-02-12T22:17:12.535Z,2.22
2024-02-12T22:19:39.535Z,2.22
2024-02-12T22:22:06.414Z,2.28
2024-02-12T22:24:33.186Z,2.60
2024-02-12T22:27:00.078Z,2.67
2024-02-12T22:29:26.994Z,2.75
2024-02-12T22:31:53.899Z,3.00
2024-02-12T22:34:22.032Z,2.95
2024-02-12T22:36:49.387Z,2.92
2024-02-12T22:39:16.196Z,3.60
2024-02-12T22:41:43.276Z,3.40
2024-02-12T22:44:10.414Z,2.55
2024-02-12T22:46:37.909Z,2.75
2024-02-12T22:49:06.723Z,3.25
2024-02-12T22:51:33.973Z,2.75
2024-02-12T22:54:01.060Z,2.80
2024-02-12T22:56:28.461Z,3.10
2024-02-12T22:58:55.468Z,3.03
2024-02-12T23:01:22.362Z,2.72
2024-02-12T23:03:50.152Z,2.92
2024-02-12T23:06:17.725Z,3.15
2024-02-12T23:08:45.285Z,2.58
2024-02-12T23:11:12.547Z,2.75
2024-02-12T23:13:39.783Z,2.95
2024-02-12T23:16:07.699Z,2.80
2024-02-12T23:18:37.223Z,2.78
2024-02-12T23:21:06.233Z,2.80
2024-02-12T23:23:33.583Z,2.75
2024-02-12T23:26:01.837Z,2.92
2024-02-12T23:28:30.782Z,2.67
2024-02-12T23:30:57.848Z,3.00
2024-02-12T23:33:24.856Z,2.30
2024-02-12T23:35:52.109Z,2.63
2024-02-12T23:38:23.198Z,2.53
2024-02-12T23:40:52.056Z,2.78
2024-02-12T23:43:19.122Z,2.75
2024-02-12T23:45:46.012Z,2.47
2024-02-12T23:48:16.129Z,2.67
2024-02-12T23:50:44.319Z,2.90
2024-02-12T23:53:12.575Z,2.88
2024-02-12T23:55:39.541Z,3.00
2024-02-12T23:58:06.379Z,2.67
